createdAt,value
2023-03-11T00:01:21.158Z,79.69
2023-03-11T00:03:58.124Z,79.73
2023-03-11T00:06:24.795Z,79.98
2023-03-11T00:08:52.297Z,79.88
2023-03-11T00:11:19.720Z,80.23
2023-03-11T00:13:46.081Z,81.06
2023-03-11T00:16:12.597Z,81.15
2023-03-11T00:18:41.817Z,81.79
2023-03-11T00:21:16.236Z,82.40
2023-03-11T00:23:42.748Z,83.05
2023-03-11T00:26:09.213Z,82.55
2023-03-11T00:28:36.006Z,82.61
2023-03-11T00:31:03.345Z,83.26
2023-03-11T00:33:31.604Z,83.08
2023-03-11T00:35:58.349Z,83.10
2023-03-11T00:38:24.823Z,83.55
2023-03-11T00:40:52.150Z,82.78
2023-03-11T00:43:20.785Z,83.17
2023-03-11T00:45:47.663Z,82.81
2023-03-11T00:48:15.093Z,82.46
2023-03-11T00:50:43.829Z,83.17
2023-03-11T00:53:10.838Z,82.55
2023-03-11T00:55:37.201Z,83.20
2023-03-11T00:58:05.470Z,83.10
2023-03-11T01:00:32.262Z,82.80
2023-03-11T01:03:01.710Z,82.90
2023-03-11T01:05:31.528Z,82.68
2023-03-11T01:07:59.081Z,83.00
2023-03-11T01:10:26.032Z,82.68
2023-03-11T01:12:55.526Z,83.04
2023-03-11T01:15:29.314Z,83.07
2023-03-11T01:17:56.790Z,82.75
2023-03-11T01:20:23.760Z,82.60
2023-03-11T01:22:51.091Z,82.88
2023-03-11T01:25:19.979Z,82.61
2023-03-11T01:27:46.565Z,82.45
2023-03-11T01:30:21.892Z,81.80
2023-03-11T01:32:48.730Z,82.31
2023-03-11T12:31:12.186Z,36.88
2023-03-11T12:33:51.548Z,36.17
2023-03-11T12:36:29.312Z,35.90
2023-03-11T12:38:56.123Z,34.31
2023-03-11T12:41:42.109Z,36.46
2023-03-11T12:44:31.295Z,36.62
2023-03-11T12:46:59.953Z,35.98
2023-03-11T12:49:35.938Z,36.82
2023-03-11T12:52:11.721Z,36.24
2023-03-11T12:54:40.492Z,35.99
2023-03-11T12:57:16.042Z,36.36
2023-03-11T13:00:22.779Z,37.97
2023-03-11T13:03:27.080Z,39.00
2023-03-11T13:06:20.881Z,38.68
2023-03-11T13:08:58.252Z,38.21
2023-03-11T13:11:33.396Z,39.02
2023-03-11T13:14:16.084Z,37.69
2023-03-11T13:16:44.587Z,37.44
2023-03-11T13:19:25.916Z,36.78
2023-03-11T13:22:00.155Z,36.09
2023-03-11T13:24:29.192Z,37.69
2023-03-11T13:26:58.416Z,38.02
2023-03-11T13:32:49.876Z,37.21
2023-03-11T13:36:20.505Z,38.44
2023-03-11T13:39:22.258Z,37.56
2023-03-11T13:41:48.983Z,39.97
2023-03-11T13:44:28.550Z,39.45
2023-03-11T13:47:02.028Z,39.55
2023-03-11T13:49:45.277Z,39.50
2023-03-11T13:52:22.109Z,40.04
2023-03-11T13:54:55.504Z,39.71
2023-03-11T13:57:33.177Z,40.39
2023-03-11T14:00:17.776Z,40.87
2023-03-11T14:02:48.388Z,38.99
2023-03-11T14:05:19.195Z,40.65
2023-03-11T14:07:45.669Z,39.71
2023-03-11T14:10:11.945Z,41.59
2023-03-11T14:12:39.998Z,40.97
2023-03-11T14:15:09.372Z,40.39
2023-03-11T14:17:35.903Z,42.03
2023-03-11T14:20:11.836Z,45.04
2023-03-11T14:22:38.400Z,41.88
2023-03-11T14:25:09.496Z,42.16
2023-03-11T14:27:38.474Z,42.37
2023-03-11T14:30:06.693Z,41.56
2023-03-11T14:32:36.269Z,42.04
2023-03-11T14:35:19.327Z,41.54
2023-03-11T14:37:45.675Z,41.43
2023-03-11T14:40:25.700Z,42.17
2023-03-11T14:42:55.721Z,42.48
2023-03-11T14:45:26.273Z,41.72
2023-03-11T14:48:02.319Z,41.94
2023-03-11T14:50:31.904Z,42.96
2023-03-11T14:53:04.605Z,43.09
2023-03-11T14:55:41.436Z,42.77
2023-03-11T14:58:23.780Z,42.52
2023-03-11T15:00:52.605Z,42.56
2023-03-11T15:03:26.078Z,43.14
2023-03-11T15:05:56.694Z,43.50
2023-03-11T15:08:28.284Z,43.84
2023-03-11T15:11:18.998Z,43.73
2023-03-11T15:13:53.118Z,41.36
2023-03-11T15:16:34.642Z,42.83
2023-03-11T15:19:20.764Z,41.42
2023-03-11T15:21:48.818Z,42.24
2023-03-11T15:24:27.916Z,42.38
2023-03-11T15:27:05.198Z,43.20
2023-03-11T15:29:33.036Z,42.89
2023-03-11T15:31:59.993Z,41.98
2023-03-11T15:34:30.529Z,43.22
2023-03-11T15:37:00.020Z,43.11
2023-03-11T15:39:47.591Z,43.96
2023-03-11T15:42:21.910Z,43.57
2023-03-11T15:44:53.543Z,44.03
2023-03-11T15:47:22.250Z,44.22
2023-03-11T15:49:49.790Z,44.78
2023-03-11T15:52:19.259Z,44.22
2023-03-11T15:54:55.045Z,44.44
2023-03-11T15:57:28.159Z,44.43
2023-03-11T15:59:57.918Z,44.92
2023-03-11T16:02:27.075Z,45.02
2023-03-11T16:04:54.090Z,44.95
2023-03-11T16:07:36.499Z,45.07
2023-03-11T16:10:05.523Z,45.03
2023-03-11T16:12:31.919Z,44.91
2023-03-11T16:14:58.571Z,45.22
2023-03-11T16:17:25.048Z,45.49
2023-03-11T16:19:51.991Z,45.19
2023-03-11T16:22:27.527Z,44.82
2023-03-11T16:24:54.336Z,44.43
2023-03-11T16:27:20.717Z,44.19
2023-03-11T16:29:47.176Z,45.17
2023-03-11T16:32:13.763Z,44.95
2023-03-11T16:34:40.296Z,45.42
2023-03-11T16:37:08.070Z,45.76
2023-03-11T16:39:34.896Z,46.01
2023-03-11T16:42:01.878Z,45.59
2023-03-11T16:44:28.378Z,45.79
2023-03-11T16:46:55.120Z,46.18
2023-03-11T16:49:21.627Z,46.36
2023-03-11T16:51:48.072Z,46.18
2023-03-11T16:54:14.966Z,46.18
2023-03-11T16:56:42.779Z,46.94
2023-03-11T16:59:09.194Z,47.28
2023-03-11T17:01:38.460Z,47.87
2023-03-11T17:04:07.907Z,47.63
2023-03-11T17:06:34.731Z,47.97
2023-03-11T17:09:02.503Z,48.13
2023-03-11T17:11:30.576Z,48.34
2023-03-11T17:14:10.053Z,48.45
2023-03-11T17:16:41.805Z,48.68
2023-03-11T17:19:08.266Z,49.10
2023-03-11T17:21:35.425Z,49.92
2023-03-11T17:24:01.800Z,49.72
2023-03-11T17:26:30.767Z,49.87
2023-03-11T17:28:57.410Z,49.55
2023-03-11T17:31:24.022Z,50.86
2023-03-11T17:33:51.121Z,50.23
2023-03-11T17:36:18.290Z,50.42
2023-03-11T17:38:46.714Z,50.46
2023-03-11T17:41:15.262Z,49.97
2023-03-11T17:43:42.372Z,51.20
2023-03-11T17:46:14.268Z,50.75
2023-03-11T17:48:42.186Z,50.16
2023-03-11T17:51:11.090Z,50.06
2023-03-11T17:53:43.853Z,50.92
2023-03-11T17:56:13.419Z,50.95
2023-03-11T17:58:40.516Z,51.11
2023-03-11T18:01:13.375Z,51.11
2023-03-11T18:03:39.906Z,52.24
2023-03-11T18:06:06.742Z,52.96
2023-03-11T18:08:35.369Z,54.03
2023-03-11T18:11:08.099Z,53.80
2023-03-11T18:13:35.500Z,52.45
2023-03-11T18:16:17.252Z,53.89
2023-03-11T18:18:44.412Z,53.11
2023-03-11T18:21:21.116Z,54.12
2023-03-11T18:23:53.532Z,52.96
2023-03-11T18:26:20.221Z,54.01
2023-03-11T18:28:46.667Z,55.55
2023-03-11T18:31:16.928Z,56.01
2023-03-11T18:33:48.400Z,55.56
2023-03-11T18:36:37.697Z,56.40
2023-03-11T18:39:06.191Z,56.76
2023-03-11T18:41:34.989Z,54.76
2023-03-11T18:44:01.620Z,56.33
2023-03-11T18:46:33.569Z,55.99
2023-03-11T18:49:01.714Z,56.78
2023-03-11T18:51:30.387Z,55.07
2023-03-11T18:53:57.321Z,55.38
2023-03-11T18:56:23.697Z,55.83
2023-03-11T18:58:50.552Z,56.39
2023-03-11T19:01:20.445Z,56.47
2023-03-11T19:03:55.579Z,56.31
2023-03-11T19:06:22.985Z,55.94
2023-03-11T19:08:49.759Z,59.31
2023-03-11T19:11:20.833Z,58.50
2023-03-11T19:13:48.212Z,57.28
2023-03-11T19:16:19.402Z,59.04
2023-03-11T19:18:53.758Z,57.10
2023-03-11T19:21:20.616Z,58.80
2023-03-11T19:23:53.046Z,58.03
2023-03-11T19:26:25.690Z,58.30
2023-03-11T19:28:57.159Z,56.80
2023-03-11T19:31:23.568Z,57.28
2023-03-11T19:33:51.349Z,56.66
2023-03-11T19:36:18.582Z,57.55
2023-03-11T19:38:45.137Z,57.83
2023-03-11T19:41:14.491Z,57.37
2023-03-11T19:43:42.902Z,56.73
2023-03-11T19:46:12.391Z,57.69
2023-03-11T19:48:38.904Z,57.36
2023-03-11T19:51:08.457Z,57.75
2023-03-11T19:53:36.386Z,59.62
2023-03-11T19:56:05.090Z,59.25
2023-03-11T19:58:31.939Z,60.61
2023-03-11T20:00:59.372Z,59.73
2023-03-11T20:03:32.899Z,60.64
2023-03-11T20:06:05.616Z,62.75
2023-03-11T20:08:36.585Z,62.57
2023-03-11T20:11:05.482Z,64.00
2023-03-11T20:13:33.686Z,61.73
2023-03-11T20:16:08.080Z,62.22
2023-03-11T20:18:34.696Z,60.62
2023-03-11T20:21:05.619Z,60.48
2023-03-11T20:23:32.784Z,61.53
2023-03-11T20:25:59.349Z,60.71
2023-03-11T20:28:27.154Z,61.96
2023-03-11T20:30:54.297Z,62.63
2023-03-11T20:33:20.731Z,61.20
2023-03-11T20:35:47.167Z,62.08
2023-03-11T20:38:13.840Z,64.25
2023-03-11T20:40:40.838Z,62.33
2023-03-11T20:43:08.856Z,64.91
2023-03-11T20:45:35.475Z,62.23
2023-03-11T20:48:03.481Z,61.89
2023-03-11T20:50:31.499Z,62.70
2023-03-11T20:52:57.967Z,62.35
2023-03-11T20:55:25.565Z,64.02
2023-03-11T20:57:54.474Z,65.07
2023-03-11T21:00:24.210Z,65.08
2023-03-11T21:02:51.063Z,65.99
2023-03-11T21:05:20.335Z,64.40
2023-03-11T21:07:48.218Z,65.75
2023-03-11T21:10:16.735Z,66.86
2023-03-11T21:12:43.347Z,66.73
2023-03-11T21:15:11.179Z,68.52
2023-03-11T21:17:37.657Z,65.53
2023-03-11T21:20:06.337Z,65.06
2023-03-11T21:22:33.481Z,67.67
2023-03-11T21:24:59.872Z,67.12
2023-03-11T21:27:26.587Z,65.08
2023-03-11T21:29:54.322Z,67.40
2023-03-11T21:32:22.322Z,66.88
2023-03-11T21:34:49.118Z,68.48
2023-03-11T21:37:15.699Z,67.95
2023-03-11T21:39:42.162Z,67.17
2023-03-11T21:42:08.704Z,69.43
2023-03-11T21:44:35.211Z,69.31
2023-03-11T21:47:01.797Z,67.74
2023-03-11T21:49:28.329Z,67.13
2023-03-11T21:51:56.325Z,66.25
2023-03-11T21:54:22.816Z,66.68
2023-03-11T21:56:49.286Z,67.77
2023-03-11T21:59:16.075Z,67.26
2023-03-11T22:01:42.657Z,70.05
2023-03-11T22:04:09.517Z,67.27
2023-03-11T22:06:35.915Z,66.69
2023-03-11T22:09:03.279Z,69.61
2023-03-11T22:11:29.904Z,68.40
2023-03-11T22:13:57.279Z,66.95
2023-03-11T22:16:24.997Z,68.67
2023-03-11T22:18:51.747Z,67.47
2023-03-11T22:21:20.506Z,67.74
2023-03-11T22:23:47.926Z,67.66
2023-03-11T22:26:15.761Z,69.48
2023-03-11T22:28:45.624Z,69.18
2023-03-11T22:31:14.675Z,67.35
2023-03-11T22:33:41.475Z,66.82
2023-03-11T22:36:09.188Z,66.71
2023-03-11T22:38:41.908Z,68.02
2023-03-11T22:41:08.472Z,68.19
2023-03-11T22:43:35.500Z,66.85
2023-03-11T22:46:02.649Z,67.32
2023-03-11T22:48:29.142Z,68.85
2023-03-11T22:50:56.156Z,67.67
2023-03-11T22:53:24.772Z,66.96
2023-03-11T22:55:53.172Z,66.64
2023-03-11T22:58:20.753Z,66.45
2023-03-11T23:00:47.420Z,68.09
2023-03-11T23:03:15.148Z,69.61
2023-03-11T23:05:42.445Z,67.52
2023-03-11T23:08:16.807Z,69.16
2023-03-11T23:10:45.418Z,68.71
2023-03-11T23:13:12.505Z,70.29
2023-03-11T23:15:44.626Z,70.16
2023-03-11T23:18:11.488Z,67.78
2023-03-11T23:20:42.714Z,68.51
2023-03-11T23:23:09.936Z,68.49
2023-03-11T23:25:36.473Z,67.66
2023-03-11T23:28:04.367Z,68.50
2023-03-11T23:30:31.629Z,70.28
2023-03-11T23:32:59.091Z,70.09
2023-03-11T23:35:26.350Z,68.76
2023-03-11T23:37:52.840Z,69.75
2023-03-11T23:40:19.243Z,68.43
2023-03-11T23:42:45.638Z,67.96
2023-03-11T23:45:12.176Z,67.88
2023-03-11T23:47:38.506Z,68.85
2023-03-11T23:50:05.686Z,68.64
2023-03-11T23:52:35.002Z,67.97
2023-03-11T23:55:01.528Z,68.41
2023-03-11T23:57:28.148Z,67.99
2023-03-11T23:59:56.865Z,70.40
